Angela K — WDE9722 — position and weather

sailwx.info

Track history (hours):
 
Tides and Currents Weather Stations Pressure Air Temp Water Temp Dewpoint Dewpoint Depression Visibility Wind Speed Wind Dir Waves Ship Positions

Angela K

Owner: SCF Waxler Marine LLC, St. Rose, LA. More information available from US FCC via Universal Licensing System and Coast Guard Vessel Documentation Center.

Last reported at 2018-Jun-15 23:06 UTC. Time now 2018-Jun-19 04:26 UTC.
Position N 32°40' W 091°08'.

Length 57 m.

Type: Cargo ship. MMSI: 367420490.

Date/timePositionNaut miles runAvg speedWind from/ knotsBaromVisibWave heightAir tempDewpointWater temp
2018-Jun-15 23:06N 32°40' W 091°08'2 2.2
2018-Jun-15 22:02N 32°38' W 091°09'0 4.4
2018-Jun-15 22:00N 32°38' W 091°09'1 1.6
2018-Jun-15 21:30N 32°37' W 091°09'1 2.3
2018-Jun-15 21:00N 32°36' W 091°09'3 5.0
2018-Jun-15 20:30N 32°34' W 091°06'2 4.4
2018-Jun-15 20:00N 32°32' W 091°06'2 4.4
2018-Jun-15 19:29N 32°30' W 091°07'2 4.8
2018-Jun-15 19:00N 32°28' W 091°06'2 4.9
2018-Jun-15 18:30N 32°26' W 091°04'3 5.1
2018-Jun-15 18:00N 32°26' W 091°01'2 4.3
2018-Jun-15 17:30N 32°24' W 090°60'2 4.7
2018-Jun-15 17:00N 32°21' W 090°60'3 5.0
2018-Jun-15 16:30N 32°21' W 090°57'2 4.9
2018-Jun-15 16:00N 32°20' W 090°54'2 4.0
2018-Jun-15 15:30N 32°18' W 090°55'1 1.5
2018-Jun-15 15:00N 32°18' W 090°56'2 4.4
2018-Jun-15 14:30N 32°16' W 090°58'2 4.6
2018-Jun-15 14:00N 32°14' W 090°59'2 5.0
2018-Jun-15 13:30N 32°12' W 090°59'2 4.5
2018-Jun-15 13:00N 32°09' W 091°00'2 4.7
2018-Jun-15 12:30N 32°07' W 091°01'2 4.8
2018-Jun-15 12:00N 32°08' W 091°04'2 4.4
2018-Jun-15 11:30N 32°07' W 091°07'3 5.0
2018-Jun-15 10:56N 32°05' W 091°04'2 4.8
2018-Jun-15 10:30N 32°03' W 091°04'3 5.6
2018-Jun-15 10:00N 32°01' W 091°05'6 4.8
2018-Jun-15 08:47N 31°58' W 091°11'2 5.0
2018-Jun-15 08:28N 31°57' W 091°11'3 5.5
2018-Jun-15 08:00N 31°54' W 091°12'7 4.6
2018-Jun-15 06:34N 31°51' W 091°19'0 4.8
2018-Jun-15 06:30N 31°51' W 091°20'2 4.4
2018-Jun-15 06:00N 31°49' W 091°21'4 4.9
2018-Jun-15 05:12N 31°45' W 091°22'1 5.3
2018-Jun-15 05:00N 31°45' W 091°22'3 5.3
2018-Jun-15 04:30N 31°42' W 091°24'98 2.0
2018-Jun-13 04:14N 30°07' W 090°57'  
2018-Jun-06 15:04N 31°58' W 091°11'1 7.9
2018-Jun-06 14:58N 31°58' W 091°11'4 7.8
2018-Jun-06 14:26N 31°59' W 091°06'4 8.5
2018-Jun-06 14:00N 32°02' W 091°04'4 7.9
2018-Jun-06 13:30N 32°06' W 091°06'2 3.7
2018-Jun-06 13:00N 32°08' W 091°06'3 7.0
2018-Jun-06 12:30N 32°07' W 091°02'3 6.9
2018-Jun-06 12:00N 32°10' W 090°60'4 7.7
2018-Jun-06 11:30N 32°14' W 090°59'4 7.5
2018-Jun-06 11:00N 32°17' W 090°56'4 7.5
2018-Jun-06 10:30N 32°20' W 090°54'4 8.0
2018-Jun-06 10:00N 32°21' W 090°59'4 7.2
2018-Jun-06 09:30N 32°25' W 090°60'4 7.8
2018-Jun-06 09:00N 32°26' W 091°04'4 7.9
2018-Jun-06 08:30N 32°29' W 091°07'4 8.6
2018-Jun-06 08:00N 32°33' W 091°06'4 8.3
2018-Jun-06 07:30N 32°37' W 091°09'4 7.1
2018-Jun-06 06:59N 32°40' W 091°07'5 3.5
2018-Jun-06 05:41N 32°44' W 091°09'  
Track history (hours):
 
Tides and Currents Weather Stations Pressure Air Temp Water Temp Dewpoint Dewpoint Depression Visibility Wind Speed Wind Dir Waves Ship Positions

Angela K

Owner: SCF Waxler Marine LLC, St. Rose, LA. More information available from US FCC via Universal Licensing System and Coast Guard Vessel Documentation Center.

Last reported at 2018-Jun-15 23:06 UTC. Time now 2018-Jun-19 04:26 UTC.
Position N 32°40' W 091°08'.

Length 57 m.

Type: Cargo ship. MMSI: 367420490.

Date/timePositionNaut miles runAvg speedWind from/ knotsBaromVisibWave heightAir tempDewpointWater temp
2018-Jun-15 23:06N 32°40' W 091°08'2 2.2
2018-Jun-15 22:02N 32°38' W 091°09'0 4.4
2018-Jun-15 22:00N 32°38' W 091°09'1 1.6
2018-Jun-15 21:30N 32°37' W 091°09'1 2.3
2018-Jun-15 21:00N 32°36' W 091°09'3 5.0
2018-Jun-15 20:30N 32°34' W 091°06'2 4.4
2018-Jun-15 20:00N 32°32' W 091°06'2 4.4
2018-Jun-15 19:29N 32°30' W 091°07'2 4.8
2018-Jun-15 19:00N 32°28' W 091°06'2 4.9
2018-Jun-15 18:30N 32°26' W 091°04'3 5.1
2018-Jun-15 18:00N 32°26' W 091°01'2 4.3
2018-Jun-15 17:30N 32°24' W 090°60'2 4.7
2018-Jun-15 17:00N 32°21' W 090°60'3 5.0
2018-Jun-15 16:30N 32°21' W 090°57'2 4.9
2018-Jun-15 16:00N 32°20' W 090°54'2 4.0
2018-Jun-15 15:30N 32°18' W 090°55'1 1.5
2018-Jun-15 15:00N 32°18' W 090°56'2 4.4
2018-Jun-15 14:30N 32°16' W 090°58'2 4.6
2018-Jun-15 14:00N 32°14' W 090°59'2 5.0
2018-Jun-15 13:30N 32°12' W 090°59'2 4.5
2018-Jun-15 13:00N 32°09' W 091°00'2 4.7
2018-Jun-15 12:30N 32°07' W 091°01'2 4.8
2018-Jun-15 12:00N 32°08' W 091°04'2 4.4
2018-Jun-15 11:30N 32°07' W 091°07'3 5.0
2018-Jun-15 10:56N 32°05' W 091°04'2 4.8
2018-Jun-15 10:30N 32°03' W 091°04'3 5.6
2018-Jun-15 10:00N 32°01' W 091°05'6 4.8
2018-Jun-15 08:47N 31°58' W 091°11'2 5.0
2018-Jun-15 08:28N 31°57' W 091°11'3 5.5
2018-Jun-15 08:00N 31°54' W 091°12'7 4.6
2018-Jun-15 06:34N 31°51' W 091°19'0 4.8
2018-Jun-15 06:30N 31°51' W 091°20'2 4.4
2018-Jun-15 06:00N 31°49' W 091°21'4 4.9
2018-Jun-15 05:12N 31°45' W 091°22'1 5.3
2018-Jun-15 05:00N 31°45' W 091°22'3 5.3
2018-Jun-15 04:30N 31°42' W 091°24'98 2.0
2018-Jun-13 04:14N 30°07' W 090°57'  
2018-Jun-06 15:04N 31°58' W 091°11'1 7.9
2018-Jun-06 14:58N 31°58' W 091°11'4 7.8
2018-Jun-06 14:26N 31°59' W 091°06'4 8.5
2018-Jun-06 14:00N 32°02' W 091°04'4 7.9
2018-Jun-06 13:30N 32°06' W 091°06'2 3.7
2018-Jun-06 13:00N 32°08' W 091°06'3 7.0
2018-Jun-06 12:30N 32°07' W 091°02'3 6.9
2018-Jun-06 12:00N 32°10' W 090°60'4 7.7
2018-Jun-06 11:30N 32°14' W 090°59'4 7.5
2018-Jun-06 11:00N 32°17' W 090°56'4 7.5
2018-Jun-06 10:30N 32°20' W 090°54'4 8.0
2018-Jun-06 10:00N 32°21' W 090°59'4 7.2
2018-Jun-06 09:30N 32°25' W 090°60'4 7.8
2018-Jun-06 09:00N 32°26' W 091°04'4 7.9
2018-Jun-06 08:30N 32°29' W 091°07'4 8.6
2018-Jun-06 08:00N 32°33' W 091°06'4 8.3
2018-Jun-06 07:30N 32°37' W 091°09'4 7.1
2018-Jun-06 06:59N 32°40' W 091°07'5 3.5
2018-Jun-06 05:41N 32°44' W 091°09'  

Dump ship's entire track history